sensor_id;sensor_type;location;lat;lon;timestamp;pressure;altitude;pressure_sealevel;temperature;humidity
69306;BME280;56427;51.580;4.656;2024-01-30T00:01:54;102620.13;;;7.93;100.00
69306;BME280;56427;51.580;4.656;2024-01-30T00:04:20;102614.13;;;7.90;100.00
69306;BME280;56427;51.580;4.656;2024-01-30T00:06:45;102609.81;;;7.90;100.00
69306;BME280;56427;51.580;4.656;2024-01-30T00:09:11;102605.50;;;7.89;100.00
69306;BME280;56427;51.580;4.656;2024-01-30T00:11:37;102600.31;;;7.94;100.00
69306;BME280;56427;51.580;4.656;2024-01-30T00:14:05;102608.03;;;7.98;100.00
69306;BME280;56427;51.580;4.656;2024-01-30T00:16:31;102595.16;;;7.94;100.00
69306;BME280;56427;51.580;4.656;2024-01-30T00:18:56;102598.53;;;8.00;100.00
69306;BME280;56427;51.580;4.656;2024-01-30T00:21:22;102603.72;;;7.99;100.00
69306;BME280;56427;51.580;4.656;2024-01-30T00:23:48;102608.00;;;8.00;100.00
69306;BME280;56427;51.580;4.656;2024-01-30T00:26:14;102604.53;;;8.02;100.00
69306;BME280;56427;51.580;4.656;2024-01-30T00:28:41;102597.63;;;8.03;100.00
69306;BME280;56427;51.580;4.656;2024-01-30T00:31:07;102601.91;;;8.07;100.00
69306;BME280;56427;51.580;4.656;2024-01-30T00:33:32;102588.16;;;8.05;100.00
69306;BME280;56427;51.580;4.656;2024-01-30T00:35:58;102594.09;;;8.13;100.00
69306;BME280;56427;51.580;4.656;2024-01-30T00:38:23;102582.94;;;8.11;100.00
69306;BME280;56427;51.580;4.656;2024-01-30T00:40:49;102576.00;;;8.13;100.00
69306;BME280;56427;51.580;4.656;2024-01-30T00:43:15;102588.03;;;8.17;100.00
69306;BME280;56427;51.580;4.656;2024-01-30T00:45:41;102579.44;;;8.15;100.00
69306;BME280;56427;51.580;4.656;2024-01-30T00:48:06;102578.53;;;8.19;100.00
69306;BME280;56427;51.580;4.656;2024-01-30T00:50:32;102577.59;;;8.23;100.00
69306;BME280;56427;51.580;4.656;2024-01-30T00:52:58;102579.25;;;8.32;100.00
69306;BME280;56427;51.580;4.656;2024-01-30T00:55:23;102582.69;;;8.34;100.00
69306;BME280;56427;51.580;4.656;2024-01-30T00:57:48;102575.75;;;8.41;100.00
69306;BME280;56427;51.580;4.656;2024-01-30T01:00:14;102583.47;;;8.45;100.00
69306;BME280;56427;51.580;4.656;2024-01-30T01:02:42;102578.22;;;8.48;100.00
69306;BME280;56427;51.580;4.656;2024-01-30T01:05:08;102581.59;;;8.58;100.00
69306;BME280;56427;51.580;4.656;2024-01-30T01:07:34;102578.97;;;8.59;100.00
69306;BME280;56427;51.580;4.656;2024-01-30T01:09:59;102578.09;;;8.62;100.00
69306;BME280;56427;51.580;4.656;2024-01-30T01:12:25;102569.47;;;8.61;100.00
69306;BME280;56427;51.580;4.656;2024-01-30T01:14:50;102560.81;;;8.64;100.00
69306;BME280;56427;51.580;4.656;2024-01-30T01:17:16;102559.94;;;8.65;100.00
69306;BME280;56427;51.580;4.656;2024-01-30T01:19:41;102562.50;;;8.67;100.00
69306;BME280;56427;51.580;4.656;2024-01-30T01:22:06;102559.91;;;8.68;100.00
69306;BME280;56427;51.580;4.656;2024-01-30T01:24:32;102560.78;;;8.65;100.00
69306;BME280;56427;51.580;4.656;2024-01-30T01:27:00;102560.78;;;8.65;100.00
69306;BME280;56427;51.580;4.656;2024-01-30T01:29:26;102548.75;;;8.63;100.00
69306;BME280;56427;51.580;4.656;2024-01-30T01:31:55;102559.16;;;8.58;100.00
69306;BME280;56427;51.580;4.656;2024-01-30T01:34:21;102572.19;;;8.51;100.00
69306;BME280;56427;51.580;4.656;2024-01-30T01:36:46;102570.44;;;8.53;100.00
69306;BME280;56427;51.580;4.656;2024-01-30T01:39:12;102573.94;;;8.49;100.00
69306;BME280;56427;51.580;4.656;2024-01-30T01:41:37;102568.78;;;8.46;100.00
69306;BME280;56427;51.580;4.656;2024-01-30T01:44:03;102579.13;;;8.49;100.00
69306;BME280;56427;51.580;4.656;2024-01-30T01:46:30;102573.94;;;8.47;100.00
69306;BME280;56427;51.580;4.656;2024-01-30T01:48:58;102578.28;;;8.45;100.00
69306;BME280;56427;51.580;4.656;2024-01-30T01:51:24;102569.63;;;8.48;100.00
69306;BME280;56427;51.580;4.656;2024-01-30T01:53:51;102570.50;;;8.47;100.00
69306;BME280;56427;51.580;4.656;2024-01-30T01:56:17;102564.50;;;8.45;100.00
69306;BME280;56427;51.580;4.656;2024-01-30T01:58:44;102564.47;;;8.46;100.00
69306;BME280;56427;51.580;4.656;2024-01-30T02:01:14;102562.78;;;8.42;100.00
69306;BME280;56427;51.580;4.656;2024-01-30T02:03:41;102555.94;;;8.40;100.00
69306;BME280;56427;51.580;4.656;2024-01-30T02:06:07;102554.22;;;8.34;100.00
69306;BME280;56427;51.580;4.656;2024-01-30T02:08:32;102560.31;;;8.28;100.00
69306;BME280;56427;51.580;4.656;2024-01-30T02:10:58;102555.16;;;8.30;100.00
69306;BME280;56427;51.580;4.656;2024-01-30T02:13:24;102559.50;;;8.26;100.00
69306;BME280;56427;51.580;4.656;2024-01-30T02:15:51;102544.00;;;8.25;100.00
69306;BME280;56427;51.580;4.656;2024-01-30T02:18:17;102542.31;;;8.21;100.00
69306;BME280;56427;51.580;4.656;2024-01-30T02:20:43;102538.94;;;8.17;100.00
69306;BME280;56427;51.580;4.656;2024-01-30T02:23:09;102529.50;;;8.11;100.00
69306;BME280;56427;51.580;4.656;2024-01-30T02:25:40;102537.25;;;8.11;100.00
69306;BME280;56427;51.580;4.656;2024-01-30T02:28:14;102525.13;;;8.18;100.00
69306;BME280;56427;51.580;4.656;2024-01-30T02:30:40;102537.16;;;8.19;100.00
69306;BME280;56427;51.580;4.656;2024-01-30T02:33:06;102534.53;;;8.22;100.00
69306;BME280;56427;51.580;4.656;2024-01-30T02:35:31;102542.34;;;8.19;100.00
69306;BME280;56427;51.580;4.656;2024-01-30T02:37:58;102530.28;;;8.18;100.00
69306;BME280;56427;51.580;4.656;2024-01-30T02:40:24;102538.03;;;8.20;100.00
69306;BME280;56427;51.580;4.656;2024-01-30T02:42:49;102536.25;;;8.23;100.00
69306;BME280;56427;51.580;4.656;2024-01-30T02:45:14;102527.63;;;8.23;100.00
69306;BME280;56427;51.580;4.656;2024-01-30T02:47:40;102531.91;;;8.30;100.00
69306;BME280;56427;51.580;4.656;2024-01-30T02:50:06;102531.97;;;8.24;100.00
69306;BME280;56427;51.580;4.656;2024-01-30T02:52:32;102545.66;;;8.32;100.00
69306;BME280;56427;51.580;4.656;2024-01-30T02:54:57;102551.66;;;8.32;100.00
69306;BME280;56427;51.580;4.656;2024-01-30T02:57:23;102543.00;;;8.35;100.00
69306;BME280;56427;51.580;4.656;2024-01-30T02:59:48;102545.59;;;8.35;100.00
69306;BME280;56427;51.580;4.656;2024-01-30T03:02:13;102529.19;;;8.41;100.00
69306;BME280;56427;51.580;4.656;2024-01-30T03:04:41;102537.81;;;8.41;100.00
69306;BME280;56427;51.580;4.656;2024-01-30T03:07:07;102539.59;;;8.37;100.00
69306;BME280;56427;51.580;4.656;2024-01-30T03:09:32;102533.47;;;8.45;100.00
69306;BME280;56427;51.580;4.656;2024-01-30T03:11:58;102525.69;;;8.46;100.00
69306;BME280;56427;51.580;4.656;2024-01-30T03:14:24;102535.16;;;8.49;100.00
69306;BME280;56427;51.580;4.656;2024-01-30T03:16:49;102533.34;;;8.55;100.00
69306;BME280;56427;51.580;4.656;2024-01-30T03:19:14;102523.84;;;8.54;100.00
69306;BME280;56427;51.580;4.656;2024-01-30T03:21:40;102527.28;;;8.56;100.00
69306;BME280;56427;51.580;4.656;2024-01-30T03:24:05;102528.94;;;8.62;100.00
69306;BME280;56427;51.580;4.656;2024-01-30T03:26:31;102525.47;;;8.63;100.00
69306;BME280;56427;51.580;4.656;2024-01-30T03:28:56;102522.81;;;8.69;100.00
69306;BME280;56427;51.580;4.656;2024-01-30T03:31:21;102508.88;;;8.78;100.00
69306;BME280;56427;51.580;4.656;2024-01-30T03:33:47;102511.59;;;8.70;100.00
69306;BME280;56427;51.580;4.656;2024-01-30T03:36:12;102518.38;;;8.77;100.00
69306;BME280;56427;51.580;4.656;2024-01-30T03:38:38;102514.81;;;8.87;100.00
69306;BME280;56427;51.580;4.656;2024-01-30T03:41:07;102522.63;;;8.83;100.00
69306;BME280;56427;51.580;4.656;2024-01-30T03:43:32;102519.03;;;8.93;100.00
69306;BME280;56427;51.580;4.656;2024-01-30T03:45:57;102537.97;;;8.97;100.00
69306;BME280;56427;51.580;4.656;2024-01-30T03:48:23;102537.22;;;8.88;99.92
69306;BME280;56427;51.580;4.656;2024-01-30T03:50:48;102532.91;;;8.89;100.00
69306;BME280;56427;51.580;4.656;2024-01-30T03:53:13;102530.34;;;8.87;100.00
69306;BME280;56427;51.580;4.656;2024-01-30T03:55:39;102524.25;;;8.90;100.00
69306;BME280;56427;51.580;4.656;2024-01-30T03:58:04;102521.72;;;8.87;100.00
69306;BME280;56427;51.580;4.656;2024-01-30T04:00:30;102522.47;;;8.95;100.00
69306;BME280;56427;51.580;4.656;2024-01-30T04:02:55;102513.13;;;8.83;100.00
69306;BME280;56427;51.580;4.656;2024-01-30T04:05:20;102518.28;;;8.85;100.00
69306;BME280;56427;51.580;4.656;2024-01-30T04:07:46;102512.28;;;8.83;100.00
69306;BME280;56427;51.580;4.656;2024-01-30T04:10:11;102512.22;;;8.86;100.00
69306;BME280;56427;51.580;4.656;2024-01-30T04:12:39;102504.47;;;8.87;100.00
69306;BME280;56427;51.580;4.656;2024-01-30T04:15:05;102503.63;;;8.84;100.00
69306;BME280;56427;51.580;4.656;2024-01-30T04:17:31;102499.41;;;8.77;100.00
69306;BME280;56427;51.580;4.656;2024-01-30T04:19:56;102489.91;;;8.79;100.00
69306;BME280;56427;51.580;4.656;2024-01-30T04:22:22;102489.03;;;8.78;100.00
69306;BME280;56427;51.580;4.656;2024-01-30T04:24:47;102483.06;;;8.73;100.00
69306;BME280;56427;51.580;4.656;2024-01-30T04:27:12;102484.00;;;8.69;100.00
69306;BME280;56427;51.580;4.656;2024-01-30T04:29:38;102488.28;;;8.72;100.00
69306;BME280;56427;51.580;4.656;2024-01-30T04:32:04;102499.41;;;8.77;100.00
69306;BME280;56427;51.580;4.656;2024-01-30T04:34:29;102495.03;;;8.82;100.00
69306;BME280;56427;51.580;4.656;2024-01-30T04:36:55;102498.50;;;8.81;100.00
69306;BME280;56427;51.580;4.656;2024-01-30T04:39:21;102497.59;;;8.83;100.00
69306;BME280;56427;51.580;4.656;2024-01-30T04:41:47;102499.38;;;8.78;100.00
69306;BME280;56427;51.580;4.656;2024-01-30T04:44:13;102497.72;;;8.76;100.00
69306;BME280;56427;51.580;4.656;2024-01-30T04:46:38;102495.06;;;8.79;100.00
69306;BME280;56427;51.580;4.656;2024-01-30T04:49:03;102497.66;;;8.80;100.00
69306;BME280;56427;51.580;4.656;2024-01-30T04:51:29;102496.91;;;8.74;100.00
69306;BME280;56427;51.580;4.656;2024-01-30T04:53:55;102497.59;;;8.83;100.00
69306;BME280;56427;51.580;4.656;2024-01-30T04:56:20;102500.13;;;8.88;100.00
69306;BME280;56427;51.580;4.656;2024-01-30T04:58:45;102500.25;;;8.80;100.00
69306;BME280;56427;51.580;4.656;2024-01-30T05:01:15;102498.50;;;8.81;100.00
69306;BME280;56427;51.580;4.656;2024-01-30T05:03:41;102498.41;;;8.88;100.00
69306;BME280;56427;51.580;4.656;2024-01-30T05:06:06;102490.59;;;8.90;100.00
69306;BME280;56427;51.580;4.656;2024-01-30T05:08:31;102490.56;;;8.93;100.00
69306;BME280;56427;51.580;4.656;2024-01-30T05:11:00;102487.91;;;8.98;100.00
69306;BME280;56427;51.580;4.656;2024-01-30T05:13:27;102494.72;;;9.03;100.00
69306;BME280;56427;51.580;4.656;2024-01-30T05:15:52;102483.50;;;9.03;100.00
69306;BME280;56427;51.580;4.656;2024-01-30T05:18:17;102476.50;;;9.09;100.00
69306;BME280;56427;51.580;4.656;2024-01-30T05:20:43;102477.34;;;9.11;100.00
69306;BME280;56427;51.580;4.656;2024-01-30T05:23:08;102488.56;;;9.10;100.00
69306;BME280;56427;51.580;4.656;2024-01-30T05:25:34;102491.13;;;9.13;100.00
69306;BME280;56427;51.580;4.656;2024-01-30T05:28:00;102485.13;;;9.11;100.00
69306;BME280;56427;51.580;4.656;2024-01-30T05:30:25;102491.13;;;9.13;100.00
69306;BME280;56427;51.580;4.656;2024-01-30T05:32:51;102495.44;;;9.13;100.00
69306;BME280;56427;51.580;4.656;2024-01-30T05:35:16;102485.06;;;9.14;100.00
69306;BME280;56427;51.580;4.656;2024-01-30T05:37:42;102485.00;;;9.17;100.00
69306;BME280;56427;51.580;4.656;2024-01-30T05:40:07;102485.03;;;9.16;100.00
69306;BME280;56427;51.580;4.656;2024-01-30T05:42:33;102499.63;;;9.22;100.00
69306;BME280;56427;51.580;4.656;2024-01-30T05:44:58;102500.44;;;9.25;100.00
69306;BME280;56427;51.580;4.656;2024-01-30T05:47:23;102496.97;;;9.26;100.00
69306;BME280;56427;51.580;4.656;2024-01-30T05:49:49;102502.09;;;9.28;100.00
69306;BME280;56427;51.580;4.656;2024-01-30T05:52:15;102507.31;;;9.26;100.00
69306;BME280;56427;51.580;4.656;2024-01-30T05:54:41;102508.16;;;9.28;100.00
69306;BME280;56427;51.580;4.656;2024-01-30T05:57:06;102506.41;;;9.30;100.00
69306;BME280;56427;51.580;4.656;2024-01-30T05:59:32;102504.66;;;9.31;100.00
69306;BME280;56427;51.580;4.656;2024-01-30T06:01:57;102505.41;;;9.37;100.00
69306;BME280;56427;51.580;4.656;2024-01-30T06:04:23;102516.63;;;9.38;100.00
69306;BME280;56427;51.580;4.656;2024-01-30T06:06:49;102512.31;;;9.38;100.00
69306;BME280;56427;51.580;4.656;2024-01-30T06:09:15;102521.75;;;9.41;100.00
69306;BME280;56427;51.580;4.656;2024-01-30T06:11:40;102510.50;;;9.42;100.00
69306;BME280;56427;51.580;4.656;2024-01-30T06:14:06;102516.63;;;9.38;100.00
69306;BME280;56427;51.580;4.656;2024-01-30T06:16:32;102512.34;;;9.37;100.00
69306;BME280;56427;51.580;4.656;2024-01-30T06:18:58;102518.38;;;9.36;100.00
69306;BME280;56427;51.580;4.656;2024-01-30T06:21:25;102532.19;;;9.38;100.00
69306;BME280;56427;51.580;4.656;2024-01-30T06:23:51;102532.00;;;9.47;100.00
69306;BME280;56427;51.580;4.656;2024-01-30T06:26:16;102538.03;;;9.49;100.00
69306;BME280;56427;51.580;4.656;2024-01-30T06:28:41;102535.47;;;9.49;100.00
69306;BME280;56427;51.580;4.656;2024-01-30T06:31:07;102541.38;;;9.54;100.00
69306;BME280;56427;51.580;4.656;2024-01-30T06:33:32;102546.56;;;9.54;100.00
69306;BME280;56427;51.580;4.656;2024-01-30T06:35:58;102543.94;;;9.57;100.00
69306;BME280;56427;51.580;4.656;2024-01-30T06:38:23;102545.63;;;9.60;100.00
69306;BME280;56427;51.580;4.656;2024-01-30T06:40:49;102543.00;;;9.63;100.00
69306;BME280;56427;51.580;4.656;2024-01-30T06:43:14;102545.56;;;9.64;100.00
69306;BME280;56427;51.580;4.656;2024-01-30T06:45:40;102547.28;;;9.64;100.00
69306;BME280;56427;51.580;4.656;2024-01-30T06:48:07;102552.47;;;9.64;100.00
69306;BME280;56427;51.580;4.656;2024-01-30T06:50:33;102554.16;;;9.66;100.00
69306;BME280;56427;51.580;4.656;2024-01-30T06:52:58;102555.88;;;9.66;100.00
69306;BME280;56427;51.580;4.656;2024-01-30T06:55:23;102559.31;;;9.66;100.00
69306;BME280;56427;51.580;4.656;2024-01-30T06:57:49;102557.59;;;9.68;100.00
69306;BME280;56427;51.580;4.656;2024-01-30T07:00:15;102561.78;;;9.74;100.00
69306;BME280;56427;51.580;4.656;2024-01-30T07:02:41;102566.94;;;9.77;100.00
69306;BME280;56427;51.580;4.656;2024-01-30T07:05:07;102563.56;;;9.72;100.00
69306;BME280;56427;51.580;4.656;2024-01-30T07:07:32;102568.59;;;9.80;100.00
69306;BME280;56427;51.580;4.656;2024-01-30T07:09:58;102571.19;;;9.81;100.00
69306;BME280;56427;51.580;4.656;2024-01-30T07:12:24;102576.16;;;9.92;99.76
69306;BME280;56427;51.580;4.656;2024-01-30T07:14:51;102572.69;;;9.93;99.58
69306;BME280;56427;51.580;4.656;2024-01-30T07:17:16;102576.91;;;10.00;99.30
69306;BME280;56427;51.580;4.656;2024-01-30T07:19:42;102573.41;;;10.03;99.26
69306;BME280;56427;51.580;4.656;2024-01-30T07:22:08;102588.03;;;10.07;98.70
69306;BME280;56427;51.580;4.656;2024-01-30T07:24:33;102585.38;;;10.10;98.86
69306;BME280;56427;51.580;4.656;2024-01-30T07:26:59;102593.16;;;10.10;98.83
69306;BME280;56427;51.580;4.656;2024-01-30T07:29:24;102594.84;;;10.11;98.76
69306;BME280;56427;51.580;4.656;2024-01-30T07:31:50;102596.56;;;10.13;98.77
69306;BME280;56427;51.580;4.656;2024-01-30T07:34:15;102593.06;;;10.14;98.59
69306;BME280;56427;51.580;4.656;2024-01-30T07:36:41;102593.84;;;10.18;98.24
69306;BME280;56427;51.580;4.656;2024-01-30T07:39:06;102595.59;;;10.19;98.42
69306;BME280;56427;51.580;4.656;2024-01-30T07:41:32;102593.78;;;10.22;98.52
69306;BME280;56427;51.580;4.656;2024-01-30T07:43:58;102586.84;;;10.26;98.21
69306;BME280;56427;51.580;4.656;2024-01-30T07:46:23;102586.84;;;10.26;98.37
69306;BME280;56427;51.580;4.656;2024-01-30T07:48:49;102589.28;;;10.34;97.91
69306;BME280;56427;51.580;4.656;2024-01-30T07:51:14;102588.34;;;10.38;97.75
69306;BME280;56427;51.580;4.656;2024-01-30T07:53:42;102586.59;;;10.40;97.66
69306;BME280;56427;51.580;4.656;2024-01-30T07:56:08;102596.91;;;10.41;97.91
69306;BME280;56427;51.580;4.656;2024-01-30T07:58:33;102594.16;;;10.49;97.38
69306;BME280;56427;51.580;4.656;2024-01-30T08:00:59;102594.16;;;10.50;97.14
69306;BME280;56427;51.580;4.656;2024-01-30T08:03:26;102595.91;;;10.50;97.29
69306;BME280;56427;51.580;4.656;2024-01-30T08:05:51;102590.72;;;10.50;97.39
69306;BME280;56427;51.580;4.656;2024-01-30T08:08:17;102596.75;;;10.50;97.16
69306;BME280;56427;51.580;4.656;2024-01-30T08:10:42;102606.00;;;10.62;97.20
69306;BME280;56427;51.580;4.656;2024-01-30T08:13:07;102603.50;;;10.59;96.98
69306;BME280;56427;51.580;4.656;2024-01-30T08:15:34;102612.13;;;10.60;97.00
69306;BME280;56427;51.580;4.656;2024-01-30T08:18:00;102613.78;;;10.64;97.14
69306;BME280;56427;51.580;4.656;2024-01-30T08:20:25;102612.81;;;10.69;96.80
69306;BME280;56427;51.580;4.656;2024-01-30T08:22:51;102615.53;;;10.63;96.88
69306;BME280;56427;51.580;4.656;2024-01-30T08:25:16;102616.34;;;10.65;96.88
69306;BME280;56427;51.580;4.656;2024-01-30T08:27:42;102618.00;;;10.69;96.67
69306;BME280;56427;51.580;4.656;2024-01-30T08:30:08;102620.44;;;10.77;96.48
69306;BME280;56427;51.580;4.656;2024-01-30T08:32:34;102620.56;;;10.71;96.55
69306;BME280;56427;51.580;4.656;2024-01-30T08:34:59;102623.16;;;10.71;96.83
69306;BME280;56427;51.580;4.656;2024-01-30T08:37:29;102621.22;;;10.80;96.31
69306;BME280;56427;51.580;4.656;2024-01-30T08:39:54;102617.91;;;10.74;96.43
69306;BME280;56427;51.580;4.656;2024-01-30T08:42:20;102623.94;;;10.74;96.93
69306;BME280;56427;51.580;4.656;2024-01-30T08:44:50;102623.09;;;10.75;96.71
69306;BME280;56427;51.580;4.656;2024-01-30T08:47:17;102625.69;;;10.74;96.95
69306;BME280;56427;51.580;4.656;2024-01-30T08:49:44;102615.91;;;10.87;96.35
69306;BME280;56427;51.580;4.656;2024-01-30T08:52:10;102616.94;;;10.79;96.63
69306;BME280;56427;51.580;4.656;2024-01-30T08:54:36;102631.44;;;10.90;96.33
69306;BME280;56427;51.580;4.656;2024-01-30T08:57:01;102626.38;;;10.84;96.58
69306;BME280;56427;51.580;4.656;2024-01-30T08:59:27;102627.19;;;10.86;96.70
69306;BME280;56427;51.580;4.656;2024-01-30T09:01:52;102629.78;;;10.86;96.58
69306;BME280;56427;51.580;4.656;2024-01-30T09:04:21;102629.78;;;10.86;96.61
69306;BME280;56427;51.580;4.656;2024-01-30T09:06:47;102643.56;;;10.89;96.62
69306;BME280;56427;51.580;4.656;2024-01-30T09:09:13;102630.50;;;10.92;96.46
69306;BME280;56427;51.580;4.656;2024-01-30T09:11:39;102642.56;;;10.96;96.28
69306;BME280;56427;51.580;4.656;2024-01-30T09:14:05;102632.94;;;11.01;96.17
69306;BME280;56427;51.580;4.656;2024-01-30T09:16:30;102632.75;;;11.09;95.95
69306;BME280;56427;51.580;4.656;2024-01-30T09:18:55;102643.91;;;11.14;95.79
69306;BME280;56427;51.580;4.656;2024-01-30T09:21:21;102650.00;;;11.13;95.57
69306;BME280;56427;51.580;4.656;2024-01-30T09:23:46;102648.22;;;11.15;95.50
69306;BME280;56427;51.580;4.656;2024-01-30T09:26:12;102644.72;;;11.16;95.53
69306;BME280;56427;51.580;4.656;2024-01-30T09:28:38;102652.56;;;11.15;95.49
69306;BME280;56427;51.580;4.656;2024-01-30T09:31:03;102653.38;;;11.17;95.33
69306;BME280;56427;51.580;4.656;2024-01-30T09:33:29;102653.34;;;11.18;95.12
69306;BME280;56427;51.580;4.656;2024-01-30T09:35:54;102660.25;;;11.19;95.08
69306;BME280;56427;51.580;4.656;2024-01-30T09:38:20;102653.19;;;11.24;95.06
69306;BME280;56427;51.580;4.656;2024-01-30T09:40:53;102657.44;;;11.28;94.69
69306;BME280;56427;51.580;4.656;2024-01-30T09:43:22;102661.84;;;11.25;94.95
69306;BME280;56427;51.580;4.656;2024-01-30T09:45:50;102664.44;;;11.25;95.03
69306;BME280;56427;51.580;4.656;2024-01-30T09:48:16;102674.09;;;11.20;95.13
69306;BME280;56427;51.580;4.656;2024-01-30T09:50:42;102672.22;;;11.26;95.15
69306;BME280;56427;51.580;4.656;2024-01-30T09:53:11;102674.13;;;11.18;95.21
69306;BME280;56427;51.580;4.656;2024-01-30T09:55:38;102664.56;;;11.19;95.18
69306;BME280;56427;51.580;4.656;2024-01-30T09:58:08;102666.31;;;11.20;95.34
69306;BME280;56427;51.580;4.656;2024-01-30T10:00:33;102674.13;;;11.18;95.60
69306;BME280;56427;51.580;4.656;2024-01-30T10:02:59;102671.50;;;11.18;95.40
69306;BME280;56427;51.580;4.656;2024-01-30T10:05:26;102687.09;;;11.20;95.26
69306;BME280;56427;51.580;4.656;2024-01-30T10:07:54;102692.16;;;11.26;94.37
69306;BME280;56427;51.580;4.656;2024-01-30T10:10:24;102682.63;;;11.26;94.67
69306;BME280;56427;51.580;4.656;2024-01-30T10:12:49;102684.13;;;11.37;94.61
69306;BME280;56427;51.580;4.656;2024-01-30T10:15:15;102687.56;;;11.39;94.24
69306;BME280;56427;51.580;4.656;2024-01-30T10:17:42;102692.72;;;11.40;93.91
69306;BME280;56427;51.580;4.656;2024-01-30T10:20:08;102694.91;;;11.58;93.23
69306;BME280;56427;51.580;4.656;2024-01-30T10:22:33;102697.41;;;11.63;92.44
69306;BME280;56427;51.580;4.656;2024-01-30T10:25:00;102693.56;;;11.79;89.94
69306;BME280;56427;51.580;4.656;2024-01-30T10:27:26;102697.00;;;11.83;89.24
69306;BME280;56427;51.580;4.656;2024-01-30T10:29:52;102701.50;;;11.73;88.35
69306;BME280;56427;51.580;4.656;2024-01-30T10:32:18;102700.72;;;11.70;88.27
69306;BME280;56427;51.580;4.656;2024-01-30T10:34:45;102702.47;;;11.68;87.38
69306;BME280;56427;51.580;4.656;2024-01-30T10:37:11;102713.00;;;11.63;87.50
69306;BME280;56427;51.580;4.656;2024-01-30T10:39:39;102704.50;;;11.55;88.12
69306;BME280;56427;51.580;4.656;2024-01-30T10:42:05;102721.34;;;11.37;87.96
69306;BME280;56427;51.580;4.656;2024-01-30T10:47:29;102724.78;;;11.39;86.61
69306;BME280;56427;51.580;4.656;2024-01-30T10:49:55;102723.84;;;11.42;86.33
69306;BME280;56427;51.580;4.656;2024-01-30T10:52:23;102730.97;;;11.33;84.98
69306;BME280;56427;51.580;4.656;2024-01-30T10:54:51;102718.06;;;11.29;84.29
69306;BME280;56427;51.580;4.656;2024-01-30T10:57:17;102724.19;;;11.25;84.50
69306;BME280;56427;51.580;4.656;2024-01-30T10:59:43;102732.34;;;11.08;84.18
69306;BME280;56427;51.580;4.656;2024-01-30T11:02:11;102729.63;;;11.14;84.79
69306;BME280;56427;51.580;4.656;2024-01-30T11:04:38;102723.63;;;11.11;83.95
69306;BME280;56427;51.580;4.656;2024-01-30T11:07:14;102722.78;;;11.10;84.97
69306;BME280;56427;51.580;4.656;2024-01-30T11:09:40;102733.38;;;10.99;84.88
69306;BME280;56427;51.580;4.656;2024-01-30T11:12:12;102723.28;;;10.84;85.14
69306;BME280;56427;51.580;4.656;2024-01-30T11:14:38;102722.72;;;10.67;86.26
69306;BME280;56427;51.580;4.656;2024-01-30T11:17:05;102736.72;;;10.60;87.36
69306;BME280;56427;51.580;4.656;2024-01-30T11:19:32;102741.25;;;10.47;88.01
69306;BME280;56427;51.580;4.656;2024-01-30T11:21:58;102738.75;;;10.41;88.33
69306;BME280;56427;51.580;4.656;2024-01-30T11:24:23;102741.59;;;10.27;87.91
69306;BME280;56427;51.580;4.656;2024-01-30T11:26:55;102741.50;;;10.33;88.39
69306;BME280;56427;51.580;4.656;2024-01-30T11:29:24;102750.22;;;10.27;88.50
69306;BME280;56427;51.580;4.656;2024-01-30T11:31:57;102746.81;;;10.22;88.02
69306;BME280;56427;51.580;4.656;2024-01-30T11:34:23;102752.88;;;10.24;87.90
69306;BME280;56427;51.580;4.656;2024-01-30T11:36:52;102752.94;;;10.18;87.91
69306;BME280;56427;51.580;4.656;2024-01-30T11:39:24;102749.47;;;10.18;88.24
69306;BME280;56427;51.580;4.656;2024-01-30T11:41:51;102745.22;;;10.14;87.16
69306;BME280;56427;51.580;4.656;2024-01-30T11:44:18;102762.44;;;10.19;87.02
69306;BME280;56427;51.580;4.656;2024-01-30T11:46:43;102759.78;;;10.24;86.66
69306;BME280;56427;51.580;4.656;2024-01-30T11:49:09;102758.91;;;10.26;86.22
69306;BME280;56427;51.580;4.656;2024-01-30T11:51:35;102765.03;;;10.18;84.57
69306;BME280;56427;51.580;4.656;2024-01-30T11:54:00;102755.56;;;10.15;83.79
69306;BME280;56427;51.580;4.656;2024-01-30T11:56:26;102763.38;;;10.14;83.36
69306;BME280;56427;51.580;4.656;2024-01-30T11:58:52;102763.53;;;10.03;82.44
69306;BME280;56427;51.580;4.656;2024-01-30T12:01:17;102761.72;;;10.08;83.05
69306;BME280;56427;51.580;4.656;2024-01-30T12:03:49;102755.75;;;10.03;83.13
69306;BME280;56427;51.580;4.656;2024-01-30T12:06:15;102764.44;;;9.99;82.88
69306;BME280;56427;51.580;4.656;2024-01-30T12:08:41;102766.97;;;10.04;83.72
69306;BME280;56427;51.580;4.656;2024-01-30T12:11:07;102765.13;;;10.12;83.91
69306;BME280;56427;51.580;4.656;2024-01-30T12:13:33;102773.88;;;10.06;82.90
69306;BME280;56427;51.580;4.656;2024-01-30T12:15:59;102766.97;;;10.04;82.82
69306;BME280;56427;51.580;4.656;2024-01-30T12:18:24;102772.22;;;10.00;82.55
69306;BME280;56427;51.580;4.656;2024-01-30T12:20:59;102771.28;;;10.06;82.13
69306;BME280;56427;51.580;4.656;2024-01-30T12:23:26;102777.22;;;10.11;82.10
69306;BME280;56427;51.580;4.656;2024-01-30T12:25:52;102775.72;;;9.96;82.31
69306;BME280;56427;51.580;4.656;2024-01-30T12:28:18;102776.72;;;9.88;83.08
69306;BME280;56427;51.580;4.656;2024-01-30T12:30:43;102777.66;;;9.82;83.49
69306;BME280;56427;51.580;4.656;2024-01-30T12:33:09;102782.00;;;9.80;84.37
69306;BME280;56427;51.580;4.656;2024-01-30T12:35:35;102797.81;;;9.60;86.61
69306;BME280;56427;51.580;4.656;2024-01-30T12:38:02;102801.63;;;9.29;89.23
69306;BME280;56427;51.580;4.656;2024-01-30T12:40:27;102799.19;;;9.16;90.26
69306;BME280;56427;51.580;4.656;2024-01-30T12:42:54;102806.09;;;9.16;91.11
69306;BME280;56427;51.580;4.656;2024-01-30T12:45:19;102813.09;;;9.05;91.84
69306;BME280;56427;51.580;4.656;2024-01-30T12:47:47;102818.34;;;9.00;91.96